createdAt,value
2019-03-30T00:02:26.338Z,17.87
2019-03-30T00:04:56.023Z,16.13
2019-03-30T00:07:25.666Z,17.23
2019-03-30T00:09:55.981Z,16.20
2019-03-30T00:12:25.705Z,16.93
2019-03-30T00:14:56.759Z,15.60
2019-03-30T00:17:26.395Z,17.70
2019-03-30T00:19:56.064Z,17.33
2019-03-30T00:22:25.717Z,17.70
2019-03-30T00:24:57.066Z,18.60
2019-03-30T00:27:26.589Z,17.77
2019-03-30T00:29:56.114Z,18.00
2019-03-30T00:32:25.672Z,18.27
2019-03-30T00:34:55.197Z,17.30
2019-03-30T00:37:26.441Z,17.00
2019-03-30T00:39:56.002Z,18.87
2019-03-30T00:42:25.579Z,16.80
2019-03-30T00:44:55.230Z,16.77
2019-03-30T00:47:24.873Z,17.30
2019-03-30T00:49:54.497Z,17.70
2019-03-30T00:52:24.495Z,18.10
2019-03-30T00:54:54.162Z,17.77
2019-03-30T00:57:23.668Z,17.27
2019-03-30T00:59:53.285Z,17.00
2019-03-30T01:02:23.210Z,17.20
2019-03-30T01:04:57.000Z,17.23
2019-03-30T01:07:26.857Z,16.00
2019-03-30T01:09:57.063Z,16.20
2019-03-30T01:12:26.719Z,15.70
2019-03-30T01:14:56.271Z,15.80
2019-03-30T01:17:27.688Z,16.47
2019-03-30T01:20:03.006Z,16.80
2019-03-30T01:22:28.602Z,15.83
2019-03-30T01:24:58.951Z,15.30
2019-03-30T01:27:28.772Z,16.70
2019-03-30T01:29:58.542Z,16.20
2019-03-30T01:32:28.400Z,17.07
2019-03-30T01:34:57.944Z,16.47
2019-03-30T01:37:27.458Z,17.10
2019-03-30T01:39:57.343Z,16.63
2019-03-30T01:42:28.990Z,15.93
2019-03-30T01:44:58.600Z,17.20
2019-03-30T01:47:28.384Z,17.97
2019-03-30T01:49:58.071Z,16.53
2019-03-30T01:52:27.820Z,18.23
2019-03-30T01:54:59.302Z,18.30
2019-03-30T01:57:28.902Z,16.33
2019-03-30T01:59:58.418Z,17.20
2019-03-30T02:02:27.978Z,17.70
2019-03-30T02:04:57.656Z,17.07
2019-03-30T02:07:27.312Z,16.73
2019-03-30T02:09:57.483Z,17.23
2019-03-30T02:12:27.012Z,17.00
2019-03-30T02:14:56.610Z,17.27
2019-03-30T02:17:26.218Z,18.13
2019-03-30T02:19:55.715Z,16.27
2019-03-30T02:22:25.491Z,17.17
2019-03-30T02:24:55.058Z,15.23
2019-03-30T02:27:24.718Z,15.70
2019-03-30T02:29:54.401Z,15.00
2019-03-30T02:32:24.666Z,14.50
2019-03-30T02:34:54.268Z,14.50
2019-03-30T02:37:23.908Z,13.60
2019-03-30T02:39:53.657Z,14.80
2019-03-30T02:42:23.701Z,14.07
2019-03-30T02:44:53.683Z,15.37
2019-03-30T02:47:23.300Z,15.17
2019-03-30T02:49:52.879Z,13.97
2019-03-30T02:52:22.464Z,15.67
2019-03-30T02:54:52.767Z,16.00
2019-03-30T02:57:22.284Z,15.90
2019-03-30T02:59:51.802Z,16.10
2019-03-30T03:02:21.569Z,16.03
2019-03-30T03:04:51.147Z,15.10
2019-03-30T03:07:20.769Z,15.43
2019-03-30T03:09:50.407Z,17.60
2019-03-30T03:12:20.059Z,16.77
2019-03-30T03:14:49.637Z,16.67
2019-03-30T03:17:19.425Z,17.07
2019-03-30T03:19:49.103Z,16.83
2019-03-30T03:22:18.618Z,16.27
2019-03-30T03:24:48.212Z,14.77
2019-03-30T03:27:17.835Z,15.07
2019-03-30T03:29:47.425Z,15.40
2019-03-30T03:32:17.037Z,17.53
2019-03-30T03:34:46.857Z,16.57
2019-03-30T03:37:19.501Z,16.90
2019-03-30T03:39:49.220Z,17.90
2019-03-30T03:42:18.872Z,15.83
2019-03-30T03:44:48.396Z,14.87
2019-03-30T03:47:17.990Z,17.07
2019-03-30T03:49:49.067Z,17.57
2019-03-30T03:52:18.984Z,16.27
2019-03-30T03:54:49.124Z,17.30
2019-03-30T03:57:20.783Z,18.50
2019-03-30T03:59:52.594Z,16.37
2019-03-30T04:02:28.723Z,17.17
2019-03-30T04:05:01.427Z,16.00
2019-03-30T04:07:34.721Z,17.37
2019-03-30T04:10:08.280Z,16.93
2019-03-30T04:12:38.942Z,17.40
2019-03-30T04:15:11.778Z,17.67
2019-03-30T04:17:41.374Z,17.10
2019-03-30T04:20:14.571Z,16.10
2019-03-30T04:22:44.630Z,18.67
2019-03-30T04:25:16.078Z,18.27
2019-03-30T04:27:49.056Z,17.40
2019-03-30T04:30:19.349Z,15.10
2019-03-30T04:32:49.029Z,16.65
2019-03-30T04:35:18.712Z,17.27
2019-03-30T04:37:48.490Z,16.90
2019-03-30T04:40:18.149Z,18.20
2019-03-30T04:42:47.839Z,16.97
2019-03-30T04:45:18.041Z,17.60
2019-03-30T04:47:47.559Z,17.05
2019-03-30T04:50:17.158Z,17.50
2019-03-30T04:52:46.911Z,16.87
2019-03-30T04:55:16.531Z,17.03
2019-03-30T04:57:49.729Z,17.25
2019-03-30T05:00:18.835Z,17.23
2019-03-30T05:02:48.329Z,17.60
2019-03-30T05:05:17.983Z,17.03
2019-03-30T05:07:49.286Z,17.53
2019-03-30T05:10:18.789Z,17.43
2019-03-30T05:12:48.332Z,17.13
2019-03-30T05:15:17.898Z,18.27
2019-03-30T05:17:48.287Z,18.77
2019-03-30T05:20:18.071Z,18.97
2019-03-30T05:22:51.107Z,18.67
2019-03-30T05:25:19.337Z,20.33
2019-03-30T05:27:48.941Z,21.80
2019-03-30T05:30:18.857Z,21.17
2019-03-30T05:32:48.456Z,20.07
2019-03-30T05:35:18.078Z,21.35
2019-03-30T05:37:47.621Z,21.35
2019-03-30T05:40:17.388Z,21.10
2019-03-30T05:42:46.963Z,23.10
2019-03-30T05:45:17.080Z,22.02
2019-03-30T05:47:46.681Z,22.05
2019-03-30T05:50:16.410Z,22.30
2019-03-30T05:52:45.978Z,22.55
2019-03-30T05:55:15.647Z,23.12
2019-03-30T05:57:45.154Z,24.80
2019-03-30T06:00:16.764Z,22.17
2019-03-30T06:02:47.564Z,22.77
2019-03-30T06:05:17.120Z,22.13
2019-03-30T06:07:46.915Z,21.20
2019-03-30T06:10:16.572Z,23.80
2019-03-30T06:12:46.177Z,22.40
2019-03-30T06:15:15.885Z,21.83
2019-03-30T06:17:45.421Z,22.20
2019-03-30T06:20:15.004Z,23.77
2019-03-30T06:22:44.554Z,21.57
2019-03-30T06:25:14.084Z,22.27
2019-03-30T06:27:43.613Z,21.77
2019-03-30T06:30:31.124Z,22.30
2019-03-30T06:33:00.636Z,21.10
2019-03-30T06:35:30.336Z,21.63
2019-03-30T06:37:59.990Z,22.63
2019-03-30T06:40:30.143Z,21.20
2019-03-30T06:42:59.689Z,21.47
2019-03-30T06:45:29.227Z,22.00
2019-03-30T06:47:58.828Z,21.80
2019-03-30T06:50:28.362Z,21.23
2019-03-30T06:52:58.905Z,22.20
2019-03-30T06:55:28.818Z,21.60
2019-03-30T06:57:58.338Z,19.93
2019-03-30T07:00:34.191Z,20.57
2019-03-30T07:03:08.248Z,21.63
2019-03-30T07:05:41.278Z,20.97
2019-03-30T07:08:14.188Z,20.10
2019-03-30T07:10:46.123Z,20.30
2019-03-30T07:13:17.467Z,21.60
2019-03-30T07:15:48.984Z,21.63
2019-03-30T07:18:19.643Z,20.83
2019-03-30T07:20:49.367Z,21.80
2019-03-30T07:23:18.935Z,20.53
2019-03-30T07:25:48.671Z,20.80
2019-03-30T07:28:18.216Z,20.77
2019-03-30T07:30:47.956Z,21.30
2019-03-30T07:33:17.684Z,19.83
2019-03-30T07:35:47.909Z,18.63
2019-03-30T07:38:19.588Z,19.10
2019-03-30T07:40:49.331Z,19.90
2019-03-30T07:43:18.897Z,19.63
2019-03-30T07:45:48.426Z,19.47
2019-03-30T07:48:18.059Z,18.37
2019-03-30T07:51:07.183Z,18.87
2019-03-30T07:53:44.337Z,19.27
2019-03-30T07:56:09.033Z,20.17
2019-03-30T07:58:38.735Z,18.37
2019-03-30T08:01:11.479Z,18.50
2019-03-30T08:03:41.011Z,19.77
2019-03-30T08:06:11.492Z,19.30
2019-03-30T08:08:41.334Z,18.67
2019-03-30T08:11:14.202Z,18.57
2019-03-30T08:13:42.442Z,19.30
2019-03-30T08:16:11.987Z,17.90
2019-03-30T08:18:41.616Z,17.00
2019-03-30T08:21:11.243Z,16.30
2019-03-30T08:23:40.964Z,17.47
2019-03-30T08:26:10.614Z,17.20
2019-03-30T08:28:41.568Z,16.07
2019-03-30T08:31:11.136Z,16.20
2019-03-30T08:33:40.731Z,15.17
2019-03-30T08:36:10.346Z,15.57
2019-03-30T08:38:39.986Z,16.63
2019-03-30T08:41:09.529Z,15.77
2019-03-30T08:43:39.108Z,15.60
2019-03-30T08:46:08.780Z,15.63
2019-03-30T08:48:41.132Z,15.03
2019-03-30T08:51:10.872Z,16.00
2019-03-30T08:53:53.717Z,15.40
2019-03-30T08:56:11.717Z,15.10
2019-03-30T08:58:41.357Z,15.03
2019-03-30T09:01:11.237Z,14.40
2019-03-30T09:03:42.473Z,14.63
2019-03-30T09:06:15.037Z,14.50
2019-03-30T09:08:44.630Z,14.47
2019-03-30T09:11:14.124Z,12.20
2019-03-30T09:13:43.693Z,12.57
2019-03-30T09:16:13.346Z,13.90
2019-03-30T09:18:43.124Z,11.50
2019-03-30T09:21:12.721Z,11.03
2019-03-30T09:23:42.312Z,10.60
2019-03-30T09:26:11.988Z,10.40
2019-03-30T09:28:41.707Z,9.43
2019-03-30T09:31:11.343Z,10.10
2019-03-30T09:33:41.022Z,9.53
2019-03-30T09:36:10.815Z,10.07
2019-03-30T09:38:40.377Z,9.97
2019-03-30T09:41:10.051Z,9.43
2019-03-30T09:43:39.682Z,10.70
2019-03-30T09:46:09.308Z,8.43
2019-03-30T09:48:39.071Z,7.50
2019-03-30T09:51:08.841Z,8.07
2019-03-30T09:53:38.638Z,8.00
2019-03-30T09:56:08.403Z,7.50
2019-03-30T09:58:38.087Z,7.90
2019-03-30T10:01:07.679Z,7.60
2019-03-30T10:03:37.469Z,8.97
2019-03-30T10:06:07.170Z,8.00
2019-03-30T10:08:36.746Z,7.70
2019-03-30T10:11:06.879Z,7.90
2019-03-30T10:13:36.976Z,7.20
2019-03-30T10:16:06.560Z,8.17
2019-03-30T10:18:36.165Z,7.80
2019-03-30T10:21:05.846Z,8.03
2019-03-30T10:23:35.436Z,7.00
2019-03-30T10:26:04.997Z,7.37
2019-03-30T10:28:34.540Z,7.33
2019-03-30T10:31:04.087Z,6.83
2019-03-30T10:33:34.011Z,6.43
2019-03-30T10:36:03.646Z,6.67
2019-03-30T10:38:33.180Z,6.33
2019-03-30T10:41:02.715Z,6.27
2019-03-30T10:43:32.356Z,6.97
2019-03-30T10:46:04.790Z,7.30
2019-03-30T10:48:34.324Z,7.30
2019-03-30T10:51:03.883Z,7.50
2019-03-30T10:53:33.418Z,6.10
2019-03-30T10:56:02.999Z,6.80
2019-03-30T10:58:33.028Z,6.90
2019-03-30T11:01:02.689Z,6.93
2019-03-30T11:03:32.206Z,6.80
2019-03-30T11:06:01.893Z,6.63
2019-03-30T11:08:31.551Z,5.57
2019-03-30T11:11:01.088Z,6.87
2019-03-30T11:13:30.805Z,6.57
2019-03-30T11:16:00.415Z,7.10
2019-03-30T11:18:30.103Z,6.07
2019-03-30T11:21:00.017Z,6.27
2019-03-30T11:23:29.629Z,5.70
2019-03-30T11:25:59.143Z,6.57
2019-03-30T11:28:28.702Z,7.00
2019-03-30T11:30:58.552Z,6.90
2019-03-30T11:33:28.210Z,7.53
2019-03-30T11:35:57.880Z,7.40
2019-03-30T11:38:27.473Z,6.70
2019-03-30T11:40:58.726Z,9.00
2019-03-30T11:43:28.655Z,6.80
2019-03-30T11:45:58.201Z,6.90
2019-03-30T11:48:27.871Z,6.50
2019-03-30T11:50:57.418Z,6.63
2019-03-30T11:53:26.982Z,7.13
2019-03-30T11:55:56.637Z,6.40
2019-03-30T11:58:26.198Z,6.10
2019-03-30T12:00:55.720Z,5.63
2019-03-30T12:03:25.331Z,7.00
2019-03-30T12:05:55.554Z,6.40
2019-03-30T12:08:25.060Z,6.50
2019-03-30T12:10:54.587Z,7.10
2019-03-30T12:13:24.281Z,7.43
2019-03-30T12:15:53.977Z,6.03
2019-03-30T12:18:23.825Z,7.17
2019-03-30T12:20:53.758Z,6.20
2019-03-30T12:23:23.651Z,6.53
2019-03-30T12:25:53.224Z,6.50
2019-03-30T12:28:23.045Z,6.60
2019-03-30T12:30:53.112Z,6.10
2019-03-30T12:33:23.000Z,5.80
2019-03-30T12:35:53.251Z,7.63
2019-03-30T12:38:23.479Z,7.40
2019-03-30T12:40:53.374Z,7.57
2019-03-30T12:43:22.930Z,8.40
2019-03-30T12:45:52.597Z,8.60
2019-03-30T12:48:22.199Z,9.07
2019-03-30T12:50:53.998Z,8.70
2019-03-30T12:53:23.516Z,8.80
2019-03-30T12:55:53.190Z,8.57
2019-03-30T12:58:22.904Z,8.97
2019-03-30T13:00:52.662Z,8.50
2019-03-30T13:03:22.246Z,8.50
2019-03-30T13:05:51.968Z,9.20
2019-03-30T13:08:21.618Z,9.17
2019-03-30T13:10:51.192Z,10.33
2019-03-30T13:13:22.756Z,10.20
2019-03-30T13:15:52.509Z,10.60
2019-03-30T13:18:22.442Z,9.17
2019-03-30T13:20:52.307Z,8.90
2019-03-30T13:23:21.892Z,9.37
2019-03-30T13:26:02.805Z,9.07
2019-03-30T13:28:24.243Z,9.07
2019-03-30T13:30:53.987Z,9.13
2019-03-30T13:33:23.593Z,10.20
2019-03-30T13:35:53.340Z,8.73
2019-03-30T13:38:25.728Z,8.27
2019-03-30T13:40:56.484Z,8.40
2019-03-30T13:43:27.181Z,7.37
2019-03-30T13:45:57.068Z,8.77
2019-03-30T13:48:29.460Z,8.67
2019-03-30T13:50:59.020Z,8.60
2019-03-30T13:53:28.845Z,8.80
2019-03-30T13:55:58.434Z,8.83
2019-03-30T13:58:28.324Z,9.50
2019-03-30T14:01:00.946Z,10.20
2019-03-30T14:03:30.599Z,9.20
2019-03-30T14:06:00.319Z,9.90
2019-03-30T14:08:30.071Z,8.27
2019-03-30T14:10:59.740Z,9.30
2019-03-30T14:13:31.669Z,10.93
2019-03-30T14:16:01.261Z,9.57
2019-03-30T14:18:30.896Z,9.30
2019-03-30T14:21:00.501Z,9.10
2019-03-30T14:23:30.048Z,7.93
2019-03-30T14:25:59.619Z,7.57
2019-03-30T14:28:29.548Z,9.30
2019-03-30T14:30:59.217Z,8.73
2019-03-30T14:33:28.824Z,8.80
2019-03-30T14:35:58.526Z,7.30
2019-03-30T14:38:28.048Z,8.97
2019-03-30T14:40:57.557Z,9.93
2019-03-30T14:43:27.232Z,10.40
2019-03-30T14:45:57.293Z,9.50
2019-03-30T14:48:26.954Z,9.90
2019-03-30T14:50:56.735Z,10.63
2019-03-30T14:53:26.470Z,11.20
2019-03-30T14:55:56.159Z,11.57
2019-03-30T14:58:26.625Z,10.63
2019-03-30T15:00:56.255Z,10.07
2019-03-30T15:03:25.957Z,12.50
2019-03-30T15:05:55.762Z,12.47
2019-03-30T15:08:25.528Z,11.97
2019-03-30T15:10:55.222Z,11.83
2019-03-30T15:13:24.763Z,11.13
2019-03-30T15:15:57.393Z,11.83
2019-03-30T15:18:27.038Z,12.40
2019-03-30T15:20:57.023Z,12.73
2019-03-30T15:23:27.124Z,12.00
2019-03-30T15:25:57.116Z,12.07
2019-03-30T15:28:26.807Z,12.27
2019-03-30T15:30:56.330Z,12.63
2019-03-30T15:33:26.179Z,13.33
2019-03-30T15:35:55.945Z,12.77
2019-03-30T15:38:25.761Z,11.83
2019-03-30T15:40:57.050Z,12.77
2019-03-30T15:43:38.166Z,12.87
2019-03-30T15:45:58.491Z,11.83
2019-03-30T15:48:28.428Z,13.33
2019-03-30T15:50:58.322Z,10.73
2019-03-30T15:53:31.419Z,11.97
2019-03-30T15:56:00.950Z,11.60
2019-03-30T15:58:31.686Z,12.20
2019-03-30T16:01:01.422Z,12.30
2019-03-30T16:03:33.686Z,11.90
2019-03-30T16:06:05.008Z,12.43
2019-03-30T16:08:34.634Z,13.57
2019-03-30T16:11:04.326Z,13.33
2019-03-30T16:13:37.660Z,15.50
2019-03-30T16:16:07.275Z,12.80
2019-03-30T16:18:36.927Z,12.80
2019-03-30T16:21:06.717Z,26.33
2019-03-30T16:23:36.444Z,11.83
2019-03-30T16:26:07.041Z,13.30
2019-03-30T16:28:36.696Z,11.93
2019-03-30T16:31:06.360Z,12.40
2019-03-30T16:33:35.884Z,12.87
2019-03-30T16:36:05.739Z,13.00
2019-03-30T16:38:35.333Z,12.17
2019-03-30T16:41:05.062Z,14.63
2019-03-30T16:43:34.816Z,14.00
2019-03-30T16:46:04.500Z,15.30
2019-03-30T16:48:34.229Z,15.07
2019-03-30T16:51:03.938Z,14.53
2019-03-30T16:53:33.572Z,15.20
2019-03-30T16:56:03.226Z,15.53
2019-03-30T16:58:33.253Z,15.27
2019-03-30T17:01:03.062Z,16.37
2019-03-30T17:03:32.678Z,15.50
2019-03-30T17:06:03.084Z,16.93
2019-03-30T17:08:33.073Z,17.77
2019-03-30T17:11:02.610Z,21.50
2019-03-30T17:13:32.297Z,16.60
2019-03-30T17:16:02.151Z,16.77
2019-03-30T17:18:31.688Z,16.47
2019-03-30T17:21:04.568Z,17.20
2019-03-30T17:23:35.892Z,17.27
2019-03-30T17:26:05.719Z,17.20
2019-03-30T17:28:35.397Z,17.87
2019-03-30T17:31:05.187Z,16.57
2019-03-30T17:33:35.247Z,16.87
2019-03-30T17:36:04.978Z,16.90
2019-03-30T17:38:34.608Z,16.80
2019-03-30T17:41:04.316Z,17.10
2019-03-30T17:43:35.906Z,18.83
2019-03-30T17:46:05.683Z,18.43
2019-03-30T17:48:35.372Z,17.53
2019-03-30T17:51:05.109Z,18.47
2019-03-30T17:53:34.965Z,18.77
2019-03-30T17:56:04.833Z,19.00
2019-03-30T17:58:35.245Z,18.90
2019-03-30T18:01:05.212Z,18.10
2019-03-30T18:03:35.147Z,18.40
2019-03-30T18:06:05.527Z,19.23
2019-03-30T18:08:35.448Z,15.10
2019-03-30T18:11:06.109Z,18.43
2019-03-30T18:13:38.132Z,14.43
2019-03-30T18:16:08.134Z,18.10
2019-03-30T18:18:37.847Z,18.27
2019-03-30T18:21:08.619Z,16.03
2019-03-30T18:23:38.246Z,15.97
2019-03-30T18:26:08.354Z,17.93
2019-03-30T18:28:38.439Z,20.73
2019-03-30T18:31:08.830Z,17.17
2019-03-30T18:33:40.866Z,18.97
2019-03-30T18:36:10.713Z,19.30
2019-03-30T18:38:46.461Z,18.20
2019-03-30T18:41:16.156Z,18.80
2019-03-30T18:43:46.317Z,18.50
2019-03-30T18:46:18.791Z,18.90
2019-03-30T18:48:48.483Z,18.87
2019-03-30T18:51:18.853Z,18.10
2019-03-30T18:53:48.716Z,17.87
2019-03-30T18:56:18.482Z,19.30
2019-03-30T18:58:48.159Z,25.20
2019-03-30T19:01:17.796Z,28.33
2019-03-30T19:03:47.428Z,29.60
2019-03-30T19:06:17.111Z,32.90
2019-03-30T19:08:46.736Z,32.17
2019-03-30T19:11:16.503Z,37.60
2019-03-30T19:13:46.153Z,36.37
2019-03-30T19:16:15.855Z,41.10
2019-03-30T19:18:48.323Z,40.17
2019-03-30T19:21:17.839Z,40.47
2019-03-30T19:23:47.448Z,40.57
2019-03-30T19:26:17.088Z,39.93
2019-03-30T19:28:56.310Z,41.03
2019-03-30T19:31:18.122Z,41.77
2019-03-30T19:33:47.862Z,43.90
2019-03-30T19:36:17.517Z,42.70
2019-03-30T19:38:47.146Z,46.27
2019-03-30T19:41:16.858Z,48.40
2019-03-30T19:43:46.402Z,51.83
2019-03-30T19:46:15.993Z,50.93
2019-03-30T19:48:45.598Z,52.43
2019-03-30T19:51:15.429Z,52.47
2019-03-30T19:53:45.135Z,54.87
2019-03-30T19:56:14.896Z,52.83
2019-03-30T19:58:44.581Z,53.13
2019-03-30T20:01:14.256Z,53.97
2019-03-30T20:03:45.650Z,54.30
2019-03-30T20:06:15.397Z,50.60
2019-03-30T20:08:45.033Z,49.87
2019-03-30T20:11:14.738Z,50.70
2019-03-30T20:13:44.481Z,48.20
2019-03-30T20:16:14.093Z,49.97
2019-03-30T20:18:43.652Z,50.47
2019-03-30T20:21:13.273Z,52.53
2019-03-30T20:23:43.001Z,55.10
2019-03-30T20:26:12.822Z,51.60
2019-03-30T20:28:42.951Z,55.20
2019-03-30T20:31:12.715Z,54.40
2019-03-30T20:33:42.326Z,52.60
2019-03-30T20:36:12.381Z,54.40
2019-03-30T20:38:41.905Z,50.97
2019-03-30T20:41:11.499Z,56.60
2019-03-30T20:43:41.037Z,53.60
2019-03-30T20:46:10.616Z,57.30
2019-03-30T20:48:42.921Z,56.87
2019-03-30T20:51:15.768Z,60.37
2019-03-30T20:53:45.355Z,56.97
2019-03-30T20:56:15.080Z,57.90
2019-03-30T20:58:44.708Z,59.40
2019-03-30T21:01:14.251Z,57.60
2019-03-30T21:03:44.102Z,58.77
2019-03-30T21:06:13.725Z,58.50
2019-03-30T21:08:43.304Z,58.60
2019-03-30T21:11:12.908Z,61.40
2019-03-30T21:13:42.432Z,60.73
2019-03-30T21:16:12.032Z,58.10
2019-03-30T21:18:41.610Z,60.33
2019-03-30T21:21:11.419Z,60.60
2019-03-30T21:23:41.122Z,59.80
2019-03-30T21:26:10.990Z,62.13
2019-03-30T21:28:42.050Z,66.00
2019-03-30T21:31:13.290Z,61.93
2019-03-30T21:33:42.954Z,60.43
2019-03-30T21:36:12.608Z,57.23
2019-03-30T21:38:42.195Z,57.10
2019-03-30T21:41:12.824Z,55.40
2019-03-30T21:43:42.503Z,54.90
2019-03-30T21:46:12.108Z,54.70
2019-03-30T21:48:41.733Z,52.57
2019-03-30T21:51:11.343Z,53.47
2019-03-30T21:53:40.904Z,54.07
2019-03-30T21:56:10.563Z,50.87
2019-03-30T21:58:40.096Z,48.20
2019-03-30T22:01:09.613Z,48.67
2019-03-30T22:03:39.230Z,44.70
2019-03-30T22:06:11.486Z,45.10
2019-03-30T22:08:40.990Z,45.17
2019-03-30T22:11:10.664Z,40.40
2019-03-30T22:13:40.320Z,43.40
2019-03-30T22:16:09.985Z,40.23
2019-03-30T22:18:39.627Z,38.80
2019-03-30T22:21:09.318Z,38.63
2019-03-30T22:23:39.110Z,36.90
2019-03-30T22:26:09.489Z,40.53
2019-03-30T22:28:39.156Z,37.17
2019-03-30T22:31:08.666Z,38.50
2019-03-30T22:33:38.248Z,38.50
2019-03-30T22:36:07.778Z,40.77
2019-03-30T22:38:37.299Z,42.17
2019-03-30T22:41:06.847Z,38.53
2019-03-30T22:43:36.470Z,42.67
2019-03-30T22:46:07.671Z,42.13
2019-03-30T22:48:37.508Z,42.07
2019-03-30T22:51:07.168Z,42.47
2019-03-30T22:53:36.735Z,44.33
2019-03-30T22:56:06.309Z,44.13
2019-03-30T22:58:35.903Z,43.30
2019-03-30T23:01:10.091Z,41.83
2019-03-30T23:03:40.861Z,42.60
2019-03-30T23:06:10.423Z,45.87
2019-03-30T23:08:39.960Z,43.57
2019-03-30T23:11:10.142Z,43.70
2019-03-30T23:13:39.837Z,43.53
2019-03-30T23:16:09.401Z,45.60
2019-03-30T23:18:39.431Z,44.57
2019-03-30T23:21:09.294Z,45.00
2019-03-30T23:23:38.957Z,43.97
2019-03-30T23:26:09.716Z,44.13
2019-03-30T23:28:39.565Z,44.63
2019-03-30T23:31:09.309Z,44.80
2019-03-30T23:33:40.462Z,43.73
2019-03-30T23:36:10.077Z,42.20
2019-03-30T23:38:39.622Z,41.67
2019-03-30T23:41:09.174Z,42.80
2019-03-30T23:43:38.774Z,44.33
2019-03-30T23:46:08.446Z,42.77
2019-03-30T23:48:38.590Z,42.67
2019-03-30T23:51:08.439Z,43.80
2019-03-30T23:53:38.118Z,43.03
2019-03-30T23:56:18.394Z,42.90
2019-03-30T23:58:47.919Z,43.40
